Other Surface Observations
Issued by NWS Great Falls, MT

Home | Current Version | Previous Version | Text Only | Print | Product List | Glossary On
Versions: 1 2 3 4 5 6 7 8 9 10 11 12 13 14 15 16 17 18 19 20 21 22 23 24 25 26 27 28 29 30 31 32 33 34 35 36 37 38 39 40 41 42 43 44 45 46 47 48 49 50
740
SXUS55 KTFX 072044
OSOTFX
AREA AWOS OBSERVATIONS
NATIONAL WEATHER SERVICE GREAT FALLS MT
0144 PM MST WED DEC 07 2016

METAR KPWD 072045Z AUTO 30019G24KT 3SM M18/M22 A3041 RMK PLENTYWOOD
METAR KPO1 072045Z AUTO 30016G22KT 10SM M16/M22 A3050 RMK POPLAR
METAR K1S3 072045Z AUTO 31011G17KT 10SM M13/M21 A3049 RMK FORSYTH
METAR KS71 072045Z AUTO 28011G16KT 10SM M16/M21 A3058 RMK CHINOOK
METAR K38S 072045Z AUTO 00000KT 10SM M13/M19 A3035 RMK DEER LODGE
METAR K3U3 072045Z AUTO 00000KT 10SM M13/M20 A3029 RMK ANACONDA
METAR K6S5 072045Z AUTO 01003KT 10SM M09/M16 A3036 RMK HAMILTON
METAR KS59 072045Z AUTO 00000KT 10SM M08/M16 A3046 RMK LIBBY
METAR K88M 072045Z AUTO 00000KT 10SM M14/M17 A3051 RMK EUREKA



USA.gov is the U.S. government's official web portal to all federal, state and local government web resources and services.